Time;durP1;ratioP1;P1;durP2;ratioP2;P2;SDS_P1;SDS_P2;PMS_P1;PMS_P2;Temp;Humidity;BMP_temperature;BMP_pressure;BME280_temperature;BME280_humidity;BME280_pressure;Samples;Min_cycle;Max_cycle;Signal;HPM_P1;HPM_P2
2023/10/26 00:01:35;;;;;;;0.00;0.00;;;12.50;78.00;;;;;;5011253;28;20217;-23
2023/10/26 00:04:03;;;;;;;0.00;0.00;;;12.40;78.00;;;;;;5027867;28;20296;-24
2023/10/26 00:06:30;;;;;;;0.00;0.00;;;12.40;78.10;;;;;;5026304;28;20667;-24
2023/10/26 00:08:57;;;;;;;0.00;0.00;;;12.40;78.10;;;;;;5010406;28;20936;-24
2023/10/26 00:11:24;;;;;;;0.00;0.00;;;12.40;78.10;;;;;;5027986;28;20573;-24
2023/10/26 00:13:53;;;;;;;0.00;0.00;;;12.40;78.10;;;;;;5027785;28;20225;-24
2023/10/26 00:16:22;;;;;;;0.00;0.00;;;12.40;78.10;;;;;;5026467;28;20291;-24
2023/10/26 00:18:54;;;;;;;0.00;0.00;;;12.30;78.10;;;;;;5026572;28;20205;-24
2023/10/26 00:21:22;;;;;;;0.00;0.00;;;12.30;78.10;;;;;;5028166;28;20193;-24
2023/10/26 00:23:49;;;;;;;0.00;0.00;;;12.30;78.00;;;;;;5026753;28;20211;-24
2023/10/26 00:26:21;;;;;;;0.00;0.00;;;12.30;78.00;;;;;;5026224;28;20209;-24
2023/10/26 00:28:49;;;;;;;0.00;0.00;;;12.30;78.00;;;;;;5026437;28;20239;-23
2023/10/26 00:31:18;;;;;;;0.00;0.00;;;12.20;78.00;;;;;;5025547;28;20217;-24
2023/10/26 00:33:45;;;;;;;0.00;0.00;;;12.20;78.00;;;;;;5026193;28;20193;-24
2023/10/26 00:36:12;;;;;;;0.00;0.00;;;12.20;78.00;;;;;;5026052;28;20213;-24
2023/10/26 00:38:40;;;;;;;0.00;0.00;;;12.20;78.00;;;;;;5010383;28;20312;-24
2023/10/26 00:41:07;;;;;;;0.00;0.00;;;12.20;78.00;;;;;;5027533;28;20208;-24
2023/10/26 00:43:37;;;;;;;0.00;0.00;;;12.20;78.00;;;;;;5025328;28;20205;-24
2023/10/26 00:46:10;;;;;;;0.00;0.00;;;12.10;78.00;;;;;;5027045;28;20216;-24
2023/10/26 00:48:40;;;;;;;0.00;0.00;;;12.10;78.10;;;;;;5026144;28;20284;-24
2023/10/26 00:51:12;;;;;;;0.00;0.00;;;12.10;78.00;;;;;;5027555;28;20299;-24
2023/10/26 00:53:41;;;;;;;0.00;0.00;;;12.10;78.00;;;;;;5009376;28;20201;-24
2023/10/26 00:56:10;;;;;;;0.00;0.00;;;12.10;78.10;;;;;;5027668;28;20934;-24
2023/10/26 00:58:40;;;;;;;0.00;0.00;;;12.10;78.10;;;;;;5015730;28;20209;-24
2023/10/26 01:01:11;;;;;;;0.00;0.00;;;12.00;78.10;;;;;;5005646;28;20224;-25
2023/10/26 01:03:42;;;;;;;0.00;0.00;;;12.10;78.20;;;;;;5010077;28;20276;-24
2023/10/26 01:06:12;;;;;;;0.00;0.00;;;12.00;78.10;;;;;;5021679;28;20301;-24
2023/10/26 01:08:42;;;;;;;0.00;0.00;;;12.00;78.10;;;;;;5013491;28;20205;-24
2023/10/26 01:11:16;;;;;;;0.00;0.00;;;12.00;78.20;;;;;;5027265;28;20209;-24
2023/10/26 01:13:46;;;;;;;0.00;0.00;;;12.00;78.00;;;;;;5021938;28;20295;-25
2023/10/26 01:16:13;;;;;;;0.00;0.00;;;12.00;78.00;;;;;;5002566;28;20569;-24
2023/10/26 01:18:43;;;;;;;0.00;0.00;;;12.00;78.00;;;;;;5025981;28;20308;-25
2023/10/26 01:21:10;;;;;;;0.00;0.00;;;12.00;78.00;;;;;;5006119;28;20201;-25
2023/10/26 01:23:40;;;;;;;0.00;0.00;;;11.90;77.90;;;;;;5020104;28;20703;-24
2023/10/26 01:26:09;;;;;;;0.00;0.00;;;11.90;78.00;;;;;;5027096;28;20356;-24
2023/10/26 01:28:38;;;;;;;0.00;0.00;;;11.90;77.90;;;;;;5021704;28;20718;-25
2023/10/26 01:31:08;;;;;;;0.00;0.00;;;11.90;77.90;;;;;;5007402;28;20292;-24
2023/10/26 01:33:38;;;;;;;0.00;0.00;;;11.90;77.90;;;;;;5006147;28;20217;-25
2023/10/26 01:36:09;;;;;;;0.00;0.00;;;11.80;77.90;;;;;;5007400;28;20703;-24
2023/10/26 01:38:40;;;;;;;0.00;0.00;;;11.80;77.90;;;;;;5007401;28;20204;-25
2023/10/26 01:41:10;;;;;;;0.00;0.00;;;11.80;77.90;;;;;;5006969;28;20811;-24
2023/10/26 01:43:37;;;;;;;0.00;0.00;;;11.80;77.90;;;;;;5005781;28;20216;-25
2023/10/26 01:46:06;;;;;;;0.00;0.00;;;11.70;77.80;;;;;;5005655;28;20297;-25
2023/10/26 01:48:36;;;;;;;0.00;0.00;;;11.70;77.80;;;;;;5007653;28;20731;-24
2023/10/26 01:51:09;;;;;;;0.00;0.00;;;11.70;77.80;;;;;;5005377;28;20598;-24
2023/10/26 01:53:36;;;;;;;0.00;0.00;;;11.70;77.90;;;;;;5007324;28;20233;-25
2023/10/26 01:56:03;;;;;;;0.00;0.00;;;11.70;77.90;;;;;;5007314;28;20249;-25
2023/10/26 01:58:33;;;;;;;0.00;0.00;;;11.70;78.00;;;;;;4989128;28;20309;-23
2023/10/26 02:01:01;;;;;;;0.00;0.00;;;11.70;78.00;;;;;;5007127;28;20204;-25
2023/10/26 02:03:28;;;;;;;0.00;0.00;;;11.70;78.00;;;;;;5007067;28;20970;-24
2023/10/26 02:05:57;;;;;;;0.00;0.00;;;11.70;78.00;;;;;;5005779;28;20201;-25
2023/10/26 02:08:27;;;;;;;0.00;0.00;;;11.70;78.10;;;;;;5007503;28;20229;-24
2023/10/26 02:10:54;;;;;;;0.00;0.00;;;11.70;78.10;;;;;;5009320;28;20296;-25
2023/10/26 02:13:21;;;;;;;0.00;0.00;;;11.70;78.10;;;;;;5010677;28;20205;-24
2023/10/26 02:15:48;;;;;;;0.00;0.00;;;11.70;78.10;;;;;;5010159;28;20233;-24
2023/10/26 02:18:18;;;;;;;0.00;0.00;;;11.70;78.10;;;;;;5009115;28;20209;-24
2023/10/26 02:20:45;;;;;;;0.00;0.00;;;11.70;78.10;;;;;;5009130;28;20190;-25
2023/10/26 02:23:17;;;;;;;0.00;0.00;;;11.70;78.00;;;;;;5010940;28;20563;-25
2023/10/26 02:25:46;;;;;;;0.00;0.00;;;11.70;78.00;;;;;;4992925;28;20248;-25
2023/10/26 02:28:16;;;;;;;0.00;0.00;;;11.70;78.00;;;;;;5009191;28;20205;-25
2023/10/26 02:30:43;;;;;;;0.00;0.00;;;11.70;78.00;;;;;;5007820;28;20236;-25
2023/10/26 02:33:13;;;;;;;0.00;0.00;;;11.60;77.90;;;;;;5009090;28;20215;-25
2023/10/26 02:35:41;;;;;;;0.00;0.00;;;11.60;78.00;;;;;;5010105;28;20324;-24
2023/10/26 02:38:08;;;;;;;0.00;0.00;;;11.60;78.00;;;;;;5008888;28;20193;-24
2023/10/26 02:40:38;;;;;;;0.00;0.00;;;11.60;78.00;;;;;;4992809;28;20660;-25
2023/10/26 02:43:05;;;;;;;0.00;0.00;;;11.60;77.90;;;;;;5008677;28;20302;-25
2023/10/26 02:45:35;;;;;;;0.00;0.00;;;11.60;77.90;;;;;;5009440;28;20228;-25
2023/10/26 02:48:03;;;;;;;0.00;0.00;;;11.60;77.90;;;;;;5008853;28;20201;-25
2023/10/26 02:50:30;;;;;;;0.00;0.00;;;11.60;77.90;;;;;;5009829;28;20288;-24
2023/10/26 02:53:02;;;;;;;0.00;0.00;;;11.50;77.90;;;;;;5008806;28;20673;-24
2023/10/26 02:55:31;;;;;;;0.00;0.00;;;11.50;77.90;;;;;;5007890;28;20224;-25
2023/10/26 02:57:58;;;;;;;0.00;0.00;;;11.50;77.90;;;;;;5010181;28;20248;-25
2023/10/26 03:00:26;;;;;;;0.00;0.00;;;11.50;77.80;;;;;;5007924;28;20194;-25
2023/10/26 03:02:54;;;;;;;0.00;0.00;;;11.50;77.80;;;;;;5008325;28;20594;-25
2023/10/26 03:05:27;;;;;;;0.00;0.00;;;11.50;77.90;;;;;;5009167;28;20779;-25
2023/10/26 03:07:54;;;;;;;0.00;0.00;;;11.50;77.80;;;;;;5007957;28;20582;-25
2023/10/26 03:10:22;;;;;;;0.00;0.00;;;11.40;77.70;;;;;;4991732;28;20206;-25
2023/10/26 03:12:52;;;;;;;0.00;0.00;;;11.40;77.70;;;;;;5009371;28;20225;-25
2023/10/26 03:15:21;;;;;;;0.00;0.00;;;11.40;77.80;;;;;;5007998;28;20245;-25
2023/10/26 03:17:51;;;;;;;0.00;0.00;;;11.30;77.70;;;;;;5008024;28;20590;-25
2023/10/26 03:20:18;;;;;;;0.00;0.00;;;11.30;77.70;;;;;;5008036;28;20205;-25
2023/10/26 03:22:48;;;;;;;0.00;0.00;;;11.30;77.80;;;;;;5007513;28;20268;-25
2023/10/26 03:25:16;;;;;;;0.00;0.00;;;11.30;77.80;;;;;;5007420;28;20745;-25
2023/10/26 03:27:48;;;;;;;0.00;0.00;;;11.30;77.80;;;;;;5009413;28;20209;-25
2023/10/26 03:30:18;;;;;;;0.00;0.00;;;11.30;77.80;;;;;;5006593;28;20193;-25
2023/10/26 03:32:50;;;;;;;0.00;0.00;;;11.20;77.80;;;;;;5007862;28;20226;-25
2023/10/26 03:35:23;;;;;;;0.00;0.00;;;11.20;77.80;;;;;;5007446;28;20603;-25
2023/10/26 03:37:52;;;;;;;0.00;0.00;;;11.20;77.90;;;;;;5007690;28;20194;-25
2023/10/26 03:40:20;;;;;;;0.00;0.00;;;11.20;77.90;;;;;;4991390;28;20290;-25
2023/10/26 03:42:52;;;;;;;0.00;0.00;;;11.20;77.90;;;;;;5007517;28;20582;-25
2023/10/26 03:45:21;;;;;;;0.00;0.00;;;11.20;77.90;;;;;;5006571;28;20205;-24
2023/10/26 03:47:49;;;;;;;0.00;0.00;;;11.20;77.90;;;;;;5007115;28;20259;-25
2023/10/26 03:50:21;;;;;;;0.00;0.00;;;11.20;77.90;;;;;;5007388;28;20230;-25
2023/10/26 03:52:48;;;;;;;0.00;0.00;;;11.20;77.90;;;;;;5007350;28;20189;-25
2023/10/26 03:55:18;;;;;;;0.00;0.00;;;11.20;77.90;;;;;;5007477;28;20225;-25
2023/10/26 03:57:48;;;;;;;0.00;0.00;;;11.20;77.90;;;;;;5008562;28;20193;-25
2023/10/26 04:00:16;;;;;;;0.00;0.00;;;11.20;77.90;;;;;;5007907;28;20201;-24
2023/10/26 04:02:48;;;;;;;0.00;0.00;;;11.20;77.90;;;;;;5008482;28;20233;-25
2023/10/26 04:05:18;;;;;;;0.00;0.00;;;11.20;77.90;;;;;;5007836;28;20672;-25
2023/10/26 04:07:48;;;;;;;0.00;0.00;;;11.20;77.90;;;;;;5006937;28;20241;-24
2023/10/26 04:10:15;;;;;;;0.00;0.00;;;11.10;77.80;;;;;;5005551;28;20732;-24
2023/10/26 04:12:42;;;;;;;0.00;0.00;;;11.10;77.80;;;;;;5006820;28;20225;-25
2023/10/26 04:15:09;;;;;;;0.00;0.00;;;11.10;78.60;;;;;;4988266;28;20703;-25
2023/10/26 04:17:39;;;;;;;0.00;0.00;;;11.10;77.80;;;;;;5006826;28;20722;-25
2023/10/26 04:20:07;;;;;;;0.00;0.00;;;11.10;77.80;;;;;;5005151;28;20724;-25
2023/10/26 04:22:41;;;;;;;0.00;0.00;;;11.10;77.80;;;;;;5006851;28;20272;-25
2023/10/26 04:25:11;;;;;;;0.00;0.00;;;11.10;77.80;;;;;;5006741;28;20263;-25
2023/10/26 04:27:40;;;;;;;0.00;0.00;;;11.00;77.70;;;;;;4988803;28;20317;-25
2023/10/26 04:30:12;;;;;;;0.00;0.00;;;11.00;77.70;;;;;;4988497;28;20212;-25
2023/10/26 04:32:44;;;;;;;0.00;0.00;;;11.00;77.70;;;;;;5004919;28;20574;-25
2023/10/26 04:35:11;;;;;;;0.00;0.00;;;11.00;77.80;;;;;;5006433;28;20229;-26
2023/10/26 04:37:38;;;;;;;0.00;0.00;;;11.00;77.80;;;;;;5004976;28;20728;-26
2023/10/26 04:40:09;;;;;;;0.00;0.00;;;11.00;77.80;;;;;;5006102;28;20284;-25
2023/10/26 04:42:36;;;;;;;0.00;0.00;;;11.00;77.80;;;;;;5005291;28;20206;-25
2023/10/26 04:45:08;;;;;;;0.00;0.00;;;11.00;77.80;;;;;;5006107;28;20618;-26
2023/10/26 04:47:36;;;;;;;0.00;0.00;;;11.00;77.90;;;;;;5005031;28;20201;-24
2023/10/26 04:50:09;;;;;;;0.00;0.00;;;11.00;77.80;;;;;;5004716;28;20232;-25
2023/10/26 04:52:36;;;;;;;0.00;0.00;;;11.00;77.80;;;;;;5006339;28;20279;-25
2023/10/26 04:55:04;;;;;;;0.00;0.00;;;10.90;77.70;;;;;;5004848;28;20210;-26
2023/10/26 04:57:31;;;;;;;0.00;0.00;;;10.90;77.80;;;;;;4988573;28;20212;-25
2023/10/26 05:00:05;;;;;;;0.00;0.00;;;10.90;77.80;;;;;;5010775;28;20196;-26
2023/10/26 05:02:34;;;;;;;0.00;0.00;;;10.90;77.80;;;;;;5013613;28;20233;-25
2023/10/26 05:05:04;;;;;;;0.00;0.00;;;10.90;77.80;;;;;;5020577;28;20262;-25
2023/10/26 05:07:34;;;;;;;0.00;0.00;;;10.90;77.80;;;;;;5009118;28;20194;-26
2023/10/26 05:10:01;;;;;;;0.00;0.00;;;10.90;77.80;;;;;;5018913;28;20680;-26
2023/10/26 05:12:29;;;;;;;0.00;0.00;;;10.90;77.70;;;;;;5029397;28;20293;-25
2023/10/26 05:14:56;;;;;;;0.00;0.00;;;10.90;77.70;;;;;;5012650;28;20192;-25
2023/10/26 05:17:25;;;;;;;0.00;0.00;;;10.90;77.60;;;;;;5011049;28;20714;-25
2023/10/26 05:19:52;;;;;;;0.00;0.00;;;10.80;77.70;;;;;;5012766;28;20205;-25
2023/10/26 05:22:20;;;;;;;0.00;0.00;;;10.80;77.60;;;;;;5011318;28;20304;-25
2023/10/26 05:24:47;;;;;;;0.00;0.00;;;10.80;77.60;;;;;;5008737;28;20197;-25
2023/10/26 05:27:16;;;;;;;0.00;0.00;;;10.80;77.60;;;;;;5025203;28;20220;-25
2023/10/26 05:29:44;;;;;;;0.00;0.00;;;10.70;77.50;;;;;;5009324;28;20506;-25
2023/10/26 05:32:11;;;;;;;0.00;0.00;;;10.70;77.50;;;;;;5018641;28;20520;-25
2023/10/26 05:34:38;;;;;;;0.00;0.00;;;10.70;77.50;;;;;;5032343;28;20240;-25
2023/10/26 05:37:10;;;;;;;0.00;0.00;;;10.70;77.50;;;;;;5025730;28;20220;-25
2023/10/26 05:39:39;;;;;;;0.00;0.00;;;10.60;77.50;;;;;;5025050;28;20207;-25
2023/10/26 05:42:10;;;;;;;0.00;0.00;;;10.60;77.50;;;;;;5025261;28;20278;-25
2023/10/26 05:44:37;;;;;;;0.00;0.00;;;10.60;77.50;;;;;;5026505;28;20240;-25
2023/10/26 05:47:11;;;;;;;0.00;0.00;;;10.60;77.50;;;;;;5030877;28;20267;-24
2023/10/26 05:49:40;;;;;;;0.00;0.00;;;10.60;77.60;;;;;;5030653;28;20222;-26
2023/10/26 05:52:13;;;;;;;0.00;0.00;;;10.50;77.50;;;;;;5025495;28;20248;-25
2023/10/26 05:54:42;;;;;;;0.00;0.00;;;10.50;77.50;;;;;;5010988;28;20229;-28
2023/10/26 05:57:10;;;;;;;0.00;0.00;;;10.50;77.50;;;;;;5012236;28;20234;-25
2023/10/26 05:59:37;;;;;;;0.00;0.00;;;10.50;77.50;;;;;;5015732;28;20209;-25
2023/10/26 06:02:09;;;;;;;0.00;0.00;;;10.50;77.50;;;;;;4997739;28;20618;-25
2023/10/26 06:04:36;;;;;;;0.00;0.00;;;10.50;77.50;;;;;;4994426;28;21584;-26
2023/10/26 06:07:04;;;;;;;0.00;0.00;;;10.50;77.60;;;;;;4990328;28;20676;-25
2023/10/26 06:09:33;;;;;;;0.00;0.00;;;10.40;77.40;;;;;;5008856;28;20232;-25
2023/10/26 06:12:00;;;;;;;0.00;0.00;;;10.40;77.40;;;;;;5003287;28;20213;-25
2023/10/26 06:14:30;;;;;;;0.00;0.00;;;10.40;77.40;;;;;;4982620;28;20704;-25
2023/10/26 06:16:59;;;;;;;0.00;0.00;;;10.30;77.40;;;;;;5001670;28;20237;-24
2023/10/26 06:19:26;;;;;;;0.00;0.00;;;10.30;77.40;;;;;;4992314;28;20206;-25
2023/10/26 06:22:00;;;;;;;0.00;0.00;;;10.30;77.40;;;;;;4998146;28;20201;-25
2023/10/26 06:24:30;;;;;;;0.00;0.00;;;10.30;77.50;;;;;;4990484;28;20574;-25
2023/10/26 06:26:57;;;;;;;0.00;0.00;;;10.30;77.50;;;;;;4996385;28;20224;-26
2023/10/26 06:29:24;;;;;;;0.00;0.00;;;10.20;77.50;;;;;;5013008;28;20207;-25
2023/10/26 06:31:51;;;;;;;0.00;0.00;;;10.20;77.50;;;;;;5016910;28;20835;-25
2023/10/26 06:34:18;;;;;;;0.00;0.00;;;10.20;77.60;;;;;;5009364;28;20224;-25
2023/10/26 06:36:49;;;;;;;0.00;0.00;;;10.20;77.60;;;;;;5017279;28;20412;-25
2023/10/26 06:39:16;;;;;;;0.00;0.00;;;10.20;77.70;;;;;;5014969;28;20224;-24
2023/10/26 06:41:43;;;;;;;0.00;0.00;;;10.20;77.70;;;;;;5009033;28;20724;-26
2023/10/26 06:44:13;;;;;;;0.00;0.00;;;10.20;77.70;;;;;;4990834;28;20218;-25
2023/10/26 06:46:47;;;;;;;0.00;0.00;;;10.30;77.70;;;;;;5001959;28;20619;-24
2023/10/26 06:49:14;;;;;;;0.00;0.00;;;10.30;77.80;;;;;;5004517;28;20212;-25
2023/10/26 06:51:56;;;;;;;0.00;0.00;;;10.30;77.70;;;;;;5002328;28;20224;-25
2023/10/26 06:54:25;;;;;;;0.00;0.00;;;10.20;77.60;;;;;;4994716;28;20681;-26
2023/10/26 06:56:55;;;;;;;0.00;0.00;;;10.20;77.70;;;;;;5010050;28;20214;-25
2023/10/26 06:59:24;;;;;;;0.00;0.00;;;10.30;77.70;;;;;;5000714;28;20787;-25
2023/10/26 07:01:54;;;;;;;0.00;0.00;;;10.30;77.80;;;;;;5007757;28;20229;-25
2023/10/26 07:04:39;;;;;;;0.00;0.00;;;10.20;77.70;;;;;;5005713;28;20208;-24
2023/10/26 07:07:07;;;;;;;0.00;0.00;;;10.20;77.80;;;;;;5000225;28;20209;-25
2023/10/26 07:09:36;;;;;;;0.00;0.00;;;10.20;77.80;;;;;;5007711;28;20206;-24
2023/10/26 07:12:04;;;;;;;0.00;0.00;;;10.30;77.90;;;;;;5015703;28;20212;-25
2023/10/26 07:14:32;;;;;;;0.00;0.00;;;10.30;78.00;;;;;;5012579;28;20201;-24
2023/10/26 07:17:04;;;;;;;0.00;0.00;;;10.30;78.00;;;;;;5022962;28;20232;-25
2023/10/26 07:19:33;;;;;;;0.00;0.00;;;10.30;78.00;;;;;;5016885;28;20761;-25
2023/10/26 07:22:02;;;;;;;0.00;0.00;;;10.40;78.10;;;;;;4996566;28;20225;-25
2023/10/26 07:24:33;;;;;;;0.00;0.00;;;10.40;78.10;;;;;;5013059;28;20676;-25
2023/10/26 07:27:03;;;;;;;0.00;0.00;;;10.40;78.10;;;;;;5006011;28;20265;-25
2023/10/26 07:29:30;;;;;;;0.00;0.00;;;10.50;78.20;;;;;;5011395;28;20197;-25
2023/10/26 07:31:57;;;;;;;0.00;0.00;;;10.50;78.20;;;;;;5007100;28;20288;-25
2023/10/26 07:34:27;;;;;;;0.00;0.00;;;10.50;78.20;;;;;;5011612;28;20208;-24
2023/10/26 07:36:57;;;;;;;0.00;0.00;;;10.60;78.30;;;;;;5007460;28;20220;-25
2023/10/26 07:39:27;;;;;;;0.00;0.00;;;10.60;78.30;;;;;;5014841;28;20298;-26
2023/10/26 07:42:14;;;;;;;0.00;0.00;;;10.70;78.40;;;;;;5006292;28;20201;-26
2023/10/26 07:44:41;;;;;;;0.00;0.00;;;10.70;78.40;;;;;;5015147;28;20236;-24
2023/10/26 07:47:12;;;;;;;0.00;0.00;;;10.70;78.40;;;;;;5009481;28;20248;-24
2023/10/26 07:49:40;;;;;;;0.00;0.00;;;10.80;78.50;;;;;;5021347;28;20217;-25
2023/10/26 07:52:07;;;;;;;0.00;0.00;;;10.80;78.50;;;;;;5013134;28;20300;-25
2023/10/26 07:54:34;;;;;;;0.00;0.00;;;10.80;78.50;;;;;;5010258;28;20209;-27
2023/10/26 07:57:01;;;;;;;0.00;0.00;;;10.90;78.60;;;;;;5014204;28;20216;-27
2023/10/26 07:59:32;;;;;;;0.00;0.00;;;11.00;78.60;;;;;;5012099;28;20244;-25
2023/10/26 08:02:00;;;;;;;0.00;0.00;;;11.00;78.60;;;;;;5019781;28;20252;-25
2023/10/26 08:04:29;;;;;;;0.00;0.00;;;11.10;78.70;;;;;;5029478;28;20205;-25
2023/10/26 08:07:00;;;;;;;0.00;0.00;;;11.10;78.70;;;;;;5027758;28;20212;-25
2023/10/26 08:09:33;;;;;;;0.00;0.00;;;11.20;78.70;;;;;;5018226;28;20303;-25
2023/10/26 08:12:05;;;;;;;0.00;0.00;;;11.20;78.70;;;;;;5019931;28;20291;-25
2023/10/26 08:14:32;;;;;;;0.00;0.00;;;11.30;78.70;;;;;;5027640;28;20300;-25
2023/10/26 08:17:22;;;;;;;0.00;0.00;;;11.30;78.70;;;;;;5023318;28;20227;-25
2023/10/26 08:19:58;;;;;;;0.00;0.00;;;11.40;78.70;;;;;;5011741;28;20218;-25
2023/10/26 08:22:29;;;;;;;0.00;0.00;;;11.40;78.80;;;;;;5011470;28;20193;-25
2023/10/26 08:25:01;;;;;;;0.00;0.00;;;11.40;78.70;;;;;;5015377;28;20648;-26
2023/10/26 08:27:31;;;;;;;0.00;0.00;;;11.50;78.80;;;;;;5014121;28;20208;-25
2023/10/26 08:29:58;;;;;;;0.00;0.00;;;11.50;78.80;;;;;;5011393;28;20340;-24
2023/10/26 08:32:28;;;;;;;0.00;0.00;;;11.50;78.70;;;;;;5023607;28;20221;-25
2023/10/26 08:34:58;;;;;;;0.00;0.00;;;11.60;78.80;;;;;;5024543;28;20212;-24
2023/10/26 08:37:27;;;;;;;0.00;0.00;;;11.60;78.80;;;;;;5014834;28;20213;-24
2023/10/26 08:39:57;;;;;;;0.00;0.00;;;11.60;78.80;;;;;;5020059;28;20335;-25
2023/10/26 08:42:27;;;;;;;0.00;0.00;;;11.70;78.80;;;;;;4997870;28;20297;-24
2023/10/26 08:44:55;;;;;;;0.00;0.00;;;11.70;78.80;;;;;;4983171;28;20288;-24
2023/10/26 08:47:26;;;;;;;0.00;0.00;;;11.70;78.80;;;;;;5012725;28;21228;-24
2023/10/26 08:49:57;;;;;;;0.00;0.00;;;11.70;78.80;;;;;;5014451;28;20201;-25
2023/10/26 08:52:42;;;;;;;0.00;0.00;;;11.80;78.80;;;;;;5023130;28;20205;-25
2023/10/26 08:55:09;;;;;;;0.00;0.00;;;11.80;78.80;;;;;;5020480;28;20216;-25
2023/10/26 08:57:46;;;;;;;0.00;0.00;;;11.80;78.90;;;;;;5021052;28;20660;-25
2023/10/26 09:00:19;;;;;;;0.00;0.00;;;11.90;79.00;;;;;;5005247;28;20220;-25
2023/10/26 09:02:49;;;;;;;0.00;0.00;;;11.90;78.90;;;;;;5002109;28;20552;-24
2023/10/26 09:05:22;;;;;;;0.00;0.00;;;11.90;79.00;;;;;;5014225;28;20208;-26
2023/10/26 09:07:52;;;;;;;0.00;0.00;;;11.90;78.90;;;;;;5014993;28;20933;-25
2023/10/26 09:10:29;;;;;;;0.00;0.00;;;12.00;79.00;;;;;;5008980;28;20204;-25
2023/10/26 09:13:06;;;;;;;0.00;0.00;;;12.00;79.00;;;;;;5016886;28;20217;-25
2023/10/26 09:15:53;;;;;;;0.00;0.00;;;12.10;79.00;;;;;;5031258;28;20679;-25
2023/10/26 09:18:23;;;;;;;0.00;0.00;;;12.10;79.00;;;;;;5020883;28;20229;-25
2023/10/26 09:21:08;;;;;;;0.00;0.00;;;12.10;79.00;;;;;;5022170;28;20654;-25
2023/10/26 09:23:43;;;;;;;0.00;0.00;;;12.20;79.10;;;;;;5030532;28;20213;-25
2023/10/26 09:26:13;;;;;;;0.00;0.00;;;12.20;79.00;;;;;;5037003;28;20613;-25
2023/10/26 09:28:50;;;;;;;0.00;0.00;;;12.20;79.10;;;;;;5028888;28;20205;-25
2023/10/26 09:31:18;;;;;;;0.00;0.00;;;12.30;79.10;;;;;;5027855;28;20219;-25
2023/10/26 09:33:49;;;;;;;0.00;0.00;;;12.30;79.00;;;;;;5014790;28;20220;-25
2023/10/26 09:36:18;;;;;;;0.00;0.00;;;12.30;79.10;;;;;;5010093;28;20213;-25
2023/10/26 09:38:47;;;;;;;0.00;0.00;;;12.40;79.00;;;;;;5024466;28;20197;-25
2023/10/26 09:41:20;;;;;;;0.00;0.00;;;12.40;79.00;;;;;;5024679;28;20220;-25
2023/10/26 09:43:47;;;;;;;0.00;0.00;;;12.40;79.00;;;;;;5019486;28;20258;-25
2023/10/26 09:46:17;;;;;;;0.00;0.00;;;12.40;79.00;;;;;;5025720;28;20201;-25
2023/10/26 09:48:48;;;;;;;0.00;0.00;;;12.40;78.90;;;;;;5027949;28;20211;-25
2023/10/26 09:51:20;;;;;;;0.00;0.00;;;12.40;78.90;;;;;;4998415;28;20212;-25
2023/10/26 09:53:51;;;;;;;0.00;0.00;;;12.50;79.00;;;;;;5011926;28;20686;-24
2023/10/26 09:56:25;;;;;;;0.00;0.00;;;12.50;78.90;;;;;;5015564;28;20292;-25
2023/10/26 09:58:55;;;;;;;0.00;0.00;;;12.50;79.00;;;;;;5018071;28;20223;-25
2023/10/26 10:01:39;;;;;;;0.00;0.00;;;12.50;78.90;;;;;;5025749;28;20289;-25
2023/10/26 10:04:09;;;;;;;0.00;0.00;;;12.50;78.90;;;;;;5028071;28;20621;-25
2023/10/26 10:06:54;;;;;;;0.00;0.00;;;12.50;79.00;;;;;;5018145;28;20324;-24
2023/10/26 10:09:24;;;;;;;0.00;0.00;;;12.50;79.10;;;;;;5026937;28;20209;-24
2023/10/26 10:12:09;;;;;;;0.00;0.00;;;12.60;79.10;;;;;;5030275;28;20267;-24
2023/10/26 10:14:51;;;;;;;0.00;0.00;;;12.60;79.30;;;;;;5019607;28;20222;-25
2023/10/26 10:17:42;;;;;;;0.00;0.00;;;12.60;79.20;;;;;;5014833;28;20218;-24
2023/10/26 10:20:18;;;;;;;0.00;0.00;;;12.70;79.30;;;;;;5027936;28;20232;-25
2023/10/26 10:22:46;;;;;;;0.00;0.00;;;12.70;79.30;;;;;;5027473;28;20231;-25
2023/10/26 10:25:18;;;;;;;0.00;0.00;;;12.70;79.40;;;;;;5013619;28;20209;-24
2023/10/26 10:28:11;;;;;;;0.00;0.00;;;12.80;79.40;;;;;;5012504;28;20275;-25
2023/10/26 10:30:57;;;;;;;0.00;0.00;;;12.80;79.40;;;;;;5011800;28;20284;-24
2023/10/26 10:33:28;;;;;;;0.00;0.00;;;12.90;79.40;;;;;;5010067;28;20591;-25
2023/10/26 10:36:06;;;;;;;0.00;0.00;;;12.90;79.40;;;;;;5014211;28;20209;-25
2023/10/26 10:38:38;;;;;;;0.00;0.00;;;13.00;79.50;;;;;;5013794;28;20316;-24
2023/10/26 10:41:12;;;;;;;0.00;0.00;;;13.00;79.50;;;;;;5019862;28;20197;-24
2023/10/26 10:43:49;;;;;;;0.00;0.00;;;13.10;79.50;;;;;;5014318;28;20198;-25
2023/10/26 10:46:20;;;;;;;0.00;0.00;;;13.10;79.60;;;;;;5036529;28;20209;-25
2023/10/26 10:49:03;;;;;;;0.00;0.00;;;13.20;79.60;;;;;;5017715;28;20560;-25
2023/10/26 10:51:40;;;;;;;0.00;0.00;;;13.20;79.60;;;;;;5013104;28;20668;-24
2023/10/26 10:54:12;;;;;;;0.00;0.00;;;13.30;79.60;;;;;;5024386;28;20208;-25
2023/10/26 10:57:04;;;;;;;0.00;0.00;;;13.30;79.50;;;;;;5019299;28;20239;-25
2023/10/26 10:59:36;;;;;;;0.00;0.00;;;13.30;79.50;;;;;;5018361;28;20209;-25
2023/10/26 11:02:15;;;;;;;0.00;0.00;;;13.40;79.60;;;;;;5020653;28;20325;-25
2023/10/26 11:04:58;;;;;;;0.00;0.00;;;13.40;79.70;;;;;;5014515;28;20213;-25
2023/10/26 11:07:31;;;;;;;0.00;0.00;;;13.50;79.70;;;;;;5008893;28;20205;-25
2023/10/26 11:10:03;;;;;;;0.00;0.00;;;13.50;79.60;;;;;;5010911;28;20598;-24
2023/10/26 11:12:32;;;;;;;0.00;0.00;;;13.60;79.60;;;;;;5020040;28;20673;-25
2023/10/26 11:15:01;;;;;;;0.00;0.00;;;13.60;79.60;;;;;;5024319;28;20201;-25
2023/10/26 11:17:30;;;;;;;0.00;0.00;;;13.60;79.60;;;;;;5021649;28;20249;-25
2023/10/26 11:19:59;;;;;;;0.00;0.00;;;13.60;79.60;;;;;;5018003;28;20205;-25
2023/10/26 11:22:29;;;;;;;0.00;0.00;;;13.70;79.60;;;;;;5000501;28;20205;-24
2023/10/26 11:24:59;;;;;;;0.00;0.00;;;13.70;79.60;;;;;;5010684;28;20202;-25
2023/10/26 11:27:35;;;;;;;0.00;0.00;;;13.80;79.80;;;;;;5018500;28;20296;-25
2023/10/26 11:30:05;;;;;;;0.00;0.00;;;13.80;79.80;;;;;;5023894;28;20781;-25
2023/10/26 11:32:34;;;;;;;0.00;0.00;;;13.90;79.80;;;;;;5018427;28;20233;-25
2023/10/26 11:35:14;;;;;;;0.00;0.00;;;13.90;79.80;;;;;;5008744;28;20684;-24
2023/10/26 11:37:50;;;;;;;0.00;0.00;;;14.00;79.90;;;;;;5017671;28;20579;-25
2023/10/26 11:40:27;;;;;;;0.00;0.00;;;14.10;79.90;;;;;;5023494;28;20259;-25
2023/10/26 11:43:03;;;;;;;0.00;0.00;;;14.10;79.80;;;;;;5022649;28;20280;-25
2023/10/26 11:45:47;;;;;;;0.00;0.00;;;14.20;79.90;;;;;;5011202;28;20224;-25
2023/10/26 11:48:28;;;;;;;0.00;0.00;;;14.20;79.90;;;;;;5026497;28;20220;-24
2023/10/26 11:50:58;;;;;;;0.00;0.00;;;14.20;79.90;;;;;;5021573;28;20213;-25
2023/10/26 11:53:28;;;;;;;0.00;0.00;;;14.30;79.90;;;;;;5015339;28;20304;-24
2023/10/26 11:55:59;;;;;;;0.00;0.00;;;14.30;79.80;;;;;;5016010;28;20228;-24
2023/10/26 11:58:29;;;;;;;0.00;0.00;;;14.40;80.00;;;;;;5024302;28;20320;-24
2023/10/26 12:00:56;;;;;;;0.00;0.00;;;14.40;80.00;;;;;;5016761;28;20202;-25
2023/10/26 12:03:29;;;;;;;0.00;0.00;;;14.50;80.00;;;;;;5060665;28;20582;-24
2023/10/26 12:05:59;;;;;;;0.00;0.00;;;14.60;80.00;;;;;;5037434;28;20730;-24
2023/10/26 12:08:31;;;;;;;0.00;0.00;;;14.60;80.00;;;;;;5048163;28;20334;-25
2023/10/26 12:10:58;;;;;;;0.00;0.00;;;14.60;79.90;;;;;;5042948;28;20244;-24
2023/10/26 12:13:25;;;;;;;0.00;0.00;;;14.70;80.00;;;;;;5060186;28;20211;-24
2023/10/26 12:15:55;;;;;;;0.00;0.00;;;14.70;80.00;;;;;;5055833;28;20558;-24
2023/10/26 12:18:27;;;;;;;0.00;0.00;;;14.80;80.00;;;;;;5045160;28;21016;-25
2023/10/26 12:20:58;;;;;;;0.00;0.00;;;14.80;80.00;;;;;;5042299;28;20768;-24
2023/10/26 12:23:25;;;;;;;0.00;0.00;;;14.80;80.00;;;;;;5028562;28;20224;-25
2023/10/26 12:25:53;;;;;;;0.00;0.00;;;14.90;80.00;;;;;;5036032;28;20209;-24
2023/10/26 12:28:23;;;;;;;0.00;0.00;;;14.90;80.00;;;;;;5041086;28;20287;-24
2023/10/26 12:30:56;;;;;;;0.00;0.00;;;15.00;79.90;;;;;;5054055;28;20212;-24
2023/10/26 12:33:23;;;;;;;0.00;0.00;;;15.00;79.80;;;;;;5026034;28;20212;-25
2023/10/26 12:35:50;;;;;;;0.00;0.00;;;15.00;79.90;;;;;;5054628;28;20277;-25
2023/10/26 12:38:23;;;;;;;0.00;0.00;;;15.00;79.90;;;;;;5044127;28;20196;-24
2023/10/26 12:40:55;;;;;;;0.00;0.00;;;15.00;79.80;;;;;;5043028;28;20208;-25
2023/10/26 12:43:24;;;;;;;0.00;0.00;;;15.10;79.90;;;;;;5034987;28;20245;-24
2023/10/26 12:45:52;;;;;;;0.00;0.00;;;15.10;79.90;;;;;;5034967;28;20215;-25
2023/10/26 12:48:19;;;;;;;0.00;0.00;;;15.10;79.90;;;;;;5050937;28;20236;-25
2023/10/26 12:50:49;;;;;;;0.00;0.00;;;15.10;79.80;;;;;;5023277;28;20201;-24
2023/10/26 12:53:20;;;;;;;0.00;0.00;;;15.20;79.80;;;;;;5038048;28;20200;-24
2023/10/26 12:55:48;;;;;;;0.00;0.00;;;15.20;79.80;;;;;;5056601;28;20307;-25
2023/10/26 12:58:20;;;;;;;0.00;0.00;;;15.20;79.80;;;;;;5032658;28;20639;-24
2023/10/26 13:00:49;;;;;;;0.00;0.00;;;15.20;79.80;;;;;;5035110;28;20212;-25
2023/10/26 13:03:16;;;;;;;0.00;0.00;;;15.20;79.60;;;;;;5039505;28;20236;-24
2023/10/26 13:05:46;;;;;;;0.00;0.00;;;15.20;79.60;;;;;;5041162;28;20205;-25